createdAt,value
2022-10-05T00:01:30.120Z,100602.53
2022-10-05T00:04:03.300Z,100596.88
2022-10-05T00:06:31.650Z,100604.53
2022-10-05T00:09:01.971Z,100611.25
2022-10-05T00:11:31.267Z,100597.84
2022-10-05T00:13:59.444Z,100598.59
2022-10-05T00:16:27.719Z,100595.72
2022-10-05T00:18:55.635Z,100583.31
2022-10-05T00:21:26.115Z,100582.75
2022-10-05T00:23:57.363Z,100574.72
2022-10-05T00:26:27.980Z,100563.84
2022-10-05T00:28:57.497Z,100567.13
2022-10-05T00:31:31.893Z,100567.25
2022-10-05T00:34:03.228Z,100560.34
2022-10-05T00:36:31.477Z,100558.69
2022-10-05T00:39:02.651Z,100550.78
2022-10-05T00:41:45.889Z,100547.75
2022-10-05T00:44:31.472Z,100551.69
2022-10-05T00:47:10.720Z,100548.50
2022-10-05T00:50:05.941Z,100543.72
2022-10-05T00:52:40.942Z,100546.69
2022-10-05T00:55:14.538Z,100547.13
2022-10-05T00:57:49.048Z,100547.31
2022-10-05T01:00:21.275Z,100532.25
2022-10-05T01:02:58.561Z,100528.25
2022-10-05T01:05:40.422Z,100525.66
2022-10-05T01:08:21.923Z,100529.69
2022-10-05T01:11:00.215Z,100531.78
2022-10-05T01:13:35.794Z,100533.47
2022-10-05T01:16:11.469Z,100533.63
2022-10-05T01:18:51.421Z,100535.97
2022-10-05T01:21:22.449Z,100533.06
2022-10-05T01:24:37.134Z,100523.81
2022-10-05T01:27:16.448Z,100530.41
2022-10-05T01:29:51.966Z,100532.22
2022-10-05T01:32:26.302Z,100536.16
2022-10-05T01:35:01.232Z,100541.94
2022-10-05T01:37:40.170Z,100547.13
2022-10-05T01:40:12.183Z,100554.13
2022-10-05T01:42:55.353Z,100546.44
2022-10-05T01:45:37.757Z,100540.59
2022-10-05T01:48:10.638Z,100546.91
2022-10-05T01:50:52.696Z,100543.84
2022-10-05T01:53:33.076Z,100540.81
2022-10-05T01:56:11.073Z,100537.38
2022-10-05T01:58:45.605Z,100532.28
2022-10-05T02:01:22.828Z,100527.50
2022-10-05T02:04:00.481Z,100528.94
2022-10-05T02:06:33.454Z,100524.88
2022-10-05T02:09:08.333Z,100511.34
2022-10-05T02:11:38.817Z,100506.03
2022-10-05T02:14:12.299Z,100504.97
2022-10-05T02:16:44.949Z,100501.53
2022-10-05T02:19:19.147Z,100487.13
2022-10-05T02:21:52.729Z,100487.34
2022-10-05T02:24:26.248Z,100471.25
2022-10-05T02:26:55.184Z,100481.72
2022-10-05T02:29:27.006Z,100478.53
2022-10-05T02:32:01.402Z,100481.72
2022-10-05T02:34:38.317Z,100475.53
2022-10-05T02:37:23.761Z,100479.41
2022-10-05T02:42:56.136Z,100473.94
2022-10-05T02:45:38.856Z,100464.81
2022-10-05T02:48:27.570Z,100451.28
2022-10-05T02:51:04.257Z,100452.28
2022-10-05T02:53:39.842Z,100444.75
2022-10-05T02:56:17.331Z,100437.22
2022-10-05T02:58:51.428Z,100427.09
2022-10-05T03:01:26.420Z,100427.97
2022-10-05T03:04:08.248Z,100427.97
2022-10-05T03:06:46.622Z,100435.44
2022-10-05T03:09:18.789Z,100436.44
2022-10-05T03:11:56.880Z,100437.78
2022-10-05T03:14:32.593Z,100441.28
2022-10-05T03:17:12.333Z,100447.81
2022-10-05T03:19:56.664Z,100450.72
2022-10-05T03:22:39.694Z,100448.75
2022-10-05T03:25:40.124Z,100451.94
2022-10-05T03:28:16.173Z,100465.81
2022-10-05T03:30:52.380Z,100481.66
2022-10-05T03:33:32.096Z,100480.91
2022-10-05T03:36:08.452Z,100494.38
2022-10-05T03:38:45.275Z,100500.94
2022-10-05T03:41:22.921Z,100513.56
2022-10-05T03:44:05.673Z,100508.75
2022-10-05T03:46:48.316Z,100507.53
2022-10-05T03:49:29.825Z,100515.84
2022-10-05T03:52:05.429Z,100515.81
2022-10-05T03:54:38.874Z,100518.59
2022-10-05T03:57:12.339Z,100510.06
2022-10-05T03:59:50.015Z,100510.22
2022-10-05T04:02:25.714Z,100520.41
2022-10-05T04:04:57.951Z,100523.34
2022-10-05T04:07:39.280Z,100525.34
2022-10-05T04:10:15.804Z,100517.69
2022-10-05T04:12:48.610Z,100519.22
2022-10-05T04:15:23.985Z,100520.50
2022-10-05T04:17:59.296Z,100530.91
2022-10-05T04:20:33.515Z,100522.63
2022-10-05T04:23:08.977Z,100523.38
2022-10-05T04:25:43.490Z,100526.06
2022-10-05T04:28:18.220Z,100520.66
2022-10-05T04:30:50.882Z,100512.53
2022-10-05T04:33:19.402Z,100508.19
2022-10-05T04:36:06.788Z,100509.88
2022-10-05T04:50:39.265Z,100513.22
2022-10-05T04:53:24.619Z,100528.34
2022-10-05T04:55:59.192Z,100543.88
2022-10-05T04:58:47.013Z,100539.13
2022-10-05T05:01:30.042Z,100530.97
2022-10-05T05:04:24.798Z,100522.16
2022-10-05T05:07:05.429Z,100529.53
2022-10-05T05:09:57.389Z,100521.81
2022-10-05T05:12:37.163Z,100524.53
2022-10-05T05:15:27.411Z,100529.75
2022-10-05T05:18:22.995Z,100522.59
2022-10-05T05:21:00.839Z,100533.53
2022-10-05T05:23:37.694Z,100534.06
2022-10-05T05:26:15.947Z,100538.50
2022-10-05T05:28:51.352Z,100540.25
2022-10-05T05:31:28.860Z,100549.94
2022-10-05T05:34:05.669Z,100564.59
2022-10-05T05:36:57.173Z,100574.66
2022-10-05T05:39:28.801Z,100578.09
2022-10-05T05:42:17.763Z,100571.63
2022-10-05T05:44:51.433Z,100572.72
2022-10-05T05:47:24.191Z,100568.03
2022-10-05T05:50:07.352Z,100566.91
2022-10-05T05:52:42.957Z,100574.81
2022-10-05T05:55:19.907Z,100573.09
2022-10-05T05:57:55.858Z,100572.09
2022-10-05T06:00:27.802Z,100568.34
2022-10-05T06:03:09.328Z,100568.25
2022-10-05T06:05:43.236Z,100561.72
2022-10-05T06:08:18.240Z,100560.13
2022-10-05T06:10:54.264Z,100553.78
2022-10-05T06:13:29.847Z,100558.63
2022-10-05T06:16:02.694Z,100548.28
2022-10-05T06:18:33.819Z,100557.91
2022-10-05T06:21:10.603Z,100548.25
2022-10-05T06:23:46.139Z,100558.28
2022-10-05T06:26:31.498Z,100545.41
2022-10-05T06:29:05.186Z,100555.78
2022-10-05T06:31:58.746Z,100551.47
2022-10-05T06:34:43.283Z,100553.25
2022-10-05T06:37:20.231Z,100556.16
2022-10-05T06:40:04.877Z,100555.13
2022-10-05T06:42:56.498Z,100546.16
2022-10-05T06:45:53.087Z,100548.56
2022-10-05T06:48:59.632Z,100555.44
2022-10-05T06:51:43.068Z,100554.91
2022-10-05T06:54:32.866Z,100547.41
2022-10-05T06:57:11.206Z,100562.63
2022-10-05T06:59:48.395Z,100565.97
2022-10-05T07:02:26.883Z,100564.50
2022-10-05T07:05:45.787Z,100558.97
2022-10-05T07:08:19.754Z,100560.94
2022-10-05T07:11:04.919Z,100560.34
2022-10-05T07:13:49.765Z,100562.22
2022-10-05T07:16:30.671Z,100558.63
2022-10-05T07:19:14.272Z,100559.38
2022-10-05T07:21:46.320Z,100557.38
2022-10-05T07:24:29.370Z,100556.97
2022-10-05T07:27:08.728Z,100555.38
2022-10-05T07:29:44.893Z,100548.91
2022-10-05T07:32:28.824Z,100560.31
2022-10-05T07:35:05.908Z,100560.94
2022-10-05T07:37:57.850Z,100562.41
2022-10-05T07:40:39.276Z,100565.06
2022-10-05T07:43:20.566Z,100568.72
2022-10-05T07:45:54.657Z,100560.41
2022-10-05T07:48:29.131Z,100562.31
2022-10-05T07:51:02.432Z,100560.41
2022-10-05T07:53:37.631Z,100558.03
2022-10-05T07:56:15.632Z,100552.56
2022-10-05T07:58:48.326Z,100555.03
2022-10-05T08:01:20.774Z,100554.84
2022-10-05T08:03:57.155Z,100560.56
2022-10-05T08:06:49.133Z,100555.13
2022-10-05T08:09:33.561Z,100564.00
2022-10-05T08:12:15.715Z,100565.94
2022-10-05T08:14:52.648Z,100563.06
2022-10-05T08:17:31.907Z,100560.28
2022-10-05T08:20:18.296Z,100552.44
2022-10-05T08:22:53.454Z,100550.28
2022-10-05T08:25:26.482Z,100555.34
2022-10-05T08:28:01.062Z,100546.97
2022-10-05T08:30:32.558Z,100544.31
2022-10-05T08:33:07.636Z,100547.13
2022-10-05T08:35:39.570Z,100550.41
2022-10-05T08:38:14.877Z,100543.50
2022-10-05T08:41:07.065Z,100550.78
2022-10-05T08:44:07.422Z,100544.22
2022-10-05T08:47:08.024Z,100550.06
2022-10-05T08:50:03.323Z,100544.22
2022-10-05T08:52:32.271Z,100542.06
2022-10-05T08:55:35.726Z,100543.78
2022-10-05T08:58:26.943Z,100537.09
2022-10-05T09:01:02.667Z,100533.56
2022-10-05T09:03:59.020Z,100533.63
2022-10-05T09:06:48.185Z,100534.47
2022-10-05T09:09:35.400Z,100538.06
2022-10-05T09:12:33.970Z,100537.13
2022-10-05T09:15:25.978Z,100545.22
2022-10-05T09:18:34.385Z,100538.22
2022-10-05T09:21:09.745Z,100539.09
2022-10-05T09:23:40.772Z,100533.88
2022-10-05T09:26:13.447Z,100535.75
2022-10-05T09:29:02.224Z,100543.94
2022-10-05T09:31:53.375Z,100537.31
2022-10-05T09:34:40.756Z,100538.03
2022-10-05T09:37:46.269Z,100539.00
2022-10-05T09:40:50.797Z,100530.41
2022-10-05T09:43:34.727Z,100536.09
2022-10-05T09:46:47.668Z,100540.00
2022-10-05T09:49:50.522Z,100532.63
2022-10-05T09:52:45.478Z,100542.75
2022-10-05T09:55:41.850Z,100533.91
2022-10-05T09:58:50.043Z,100527.19
2022-10-05T10:01:33.704Z,100523.25
2022-10-05T10:04:22.453Z,100516.66
2022-10-05T10:07:25.514Z,100504.31
2022-10-05T10:10:21.011Z,100500.78
2022-10-05T10:13:07.575Z,100503.19
2022-10-05T10:16:12.159Z,100512.00
2022-10-05T10:19:06.851Z,100510.31
2022-10-05T10:22:03.704Z,100500.06
2022-10-05T10:24:59.686Z,100511.09
2022-10-05T10:27:51.638Z,100514.03
2022-10-05T10:30:40.571Z,100515.47
2022-10-05T10:33:34.095Z,100514.13
2022-10-05T10:36:13.264Z,100508.72
2022-10-05T10:38:52.366Z,100521.72
2022-10-05T10:41:52.310Z,100510.03
2022-10-05T10:44:52.947Z,100514.56
2022-10-05T10:47:40.275Z,100508.38
2022-10-05T10:50:48.769Z,100509.72
2022-10-05T10:53:33.677Z,100509.00
2022-10-05T10:56:23.924Z,100507.66
2022-10-05T10:59:41.469Z,100500.16
2022-10-05T11:02:27.355Z,100502.72
2022-10-05T11:05:27.014Z,100495.06
2022-10-05T11:08:32.325Z,100495.22
2022-10-05T11:11:22.576Z,100487.75
2022-10-05T11:14:13.087Z,100494.38
2022-10-05T11:17:04.082Z,100490.78
2022-10-05T11:20:03.527Z,100483.41
2022-10-05T11:22:46.570Z,100486.69
2022-10-05T11:25:34.337Z,100479.03
2022-10-05T11:28:20.217Z,100473.44
2022-10-05T11:31:06.457Z,100470.56
2022-10-05T11:33:56.095Z,100473.59
2022-10-05T11:36:48.919Z,100462.72
2022-10-05T11:39:58.833Z,100474.31
2022-10-05T11:43:09.755Z,100473.06
2022-10-05T11:45:54.517Z,100479.06
2022-10-05T11:48:53.363Z,100471.25
2022-10-05T11:51:51.074Z,100466.78
2022-10-05T11:55:09.704Z,100457.13
2022-10-05T11:57:48.960Z,100456.91
2022-10-05T12:00:21.900Z,100459.19
2022-10-05T12:03:24.521Z,100455.78
2022-10-05T12:06:15.799Z,100443.25
2022-10-05T12:08:56.899Z,100440.69
2022-10-05T12:23:19.844Z,100447.56
2022-10-05T12:25:54.625Z,100454.03
2022-10-05T12:28:31.188Z,100441.19
2022-10-05T12:31:13.004Z,100433.34
2022-10-05T12:34:03.415Z,100428.94
2022-10-05T12:39:44.240Z,100418.50
2022-10-05T12:42:26.088Z,100420.09
2022-10-05T12:45:08.964Z,100422.03
2022-10-05T12:47:49.208Z,100415.06
2022-10-05T12:50:31.667Z,100410.94
2022-10-05T12:53:35.818Z,100411.72
2022-10-05T12:56:12.618Z,100417.22
2022-10-05T12:58:51.452Z,100409.72
2022-10-05T13:01:29.821Z,100397.28
2022-10-05T13:04:12.258Z,100398.41
2022-10-05T13:06:47.224Z,100389.09
2022-10-05T13:09:23.555Z,100393.53
2022-10-05T13:11:56.603Z,100392.47
2022-10-05T13:14:49.082Z,100381.59
2022-10-05T13:17:26.836Z,100379.78
2022-10-05T13:20:02.848Z,100383.81
2022-10-05T13:22:37.898Z,100378.75
2022-10-05T13:25:20.022Z,100372.69
2022-10-05T13:27:57.174Z,100367.53
2022-10-05T13:30:26.079Z,100356.81
2022-10-05T13:33:03.694Z,100367.03
2022-10-05T13:35:46.382Z,100362.94
2022-10-05T13:38:26.634Z,100356.47
2022-10-05T13:41:06.405Z,100356.44
2022-10-05T13:43:45.893Z,100356.00
2022-10-05T13:46:22.532Z,100350.28
2022-10-05T13:49:02.754Z,100357.38
2022-10-05T13:51:40.858Z,100349.69
2022-10-05T13:54:18.592Z,100355.53
2022-10-05T13:56:58.476Z,100351.66
2022-10-05T13:59:33.831Z,100347.19
2022-10-05T14:02:06.411Z,100350.59
2022-10-05T14:04:46.726Z,100349.06
2022-10-05T14:07:31.389Z,100351.06
2022-10-05T14:10:02.783Z,100360.59
2022-10-05T14:12:40.262Z,100344.00
2022-10-05T14:15:22.661Z,100353.09
2022-10-05T14:17:52.823Z,100334.50
2022-10-05T14:20:26.098Z,100350.84
2022-10-05T14:22:58.910Z,100330.59
2022-10-05T14:25:28.024Z,100349.31
2022-10-05T14:28:05.412Z,100337.00
2022-10-05T14:30:35.044Z,100339.78
2022-10-05T14:33:16.008Z,100338.81
2022-10-05T14:35:49.538Z,100338.94
2022-10-05T14:38:20.841Z,100328.78
2022-10-05T14:41:04.868Z,100325.03
2022-10-05T14:43:34.486Z,100310.44
2022-10-05T14:46:25.387Z,100316.31
2022-10-05T14:49:30.915Z,100308.50
2022-10-05T14:51:59.764Z,100304.25
2022-10-05T14:54:47.999Z,100306.38
2022-10-05T14:57:29.189Z,100306.53
2022-10-05T15:00:05.417Z,100298.59
2022-10-05T15:03:04.495Z,100298.06
2022-10-05T15:05:40.051Z,100303.03
2022-10-05T15:08:18.751Z,100299.47
2022-10-05T15:10:53.645Z,100292.66
2022-10-05T15:13:30.507Z,100285.22
2022-10-05T15:16:04.241Z,100286.69
2022-10-05T15:18:43.823Z,100290.44
2022-10-05T15:21:34.920Z,100277.69
2022-10-05T15:24:09.370Z,100280.31
2022-10-05T15:26:49.181Z,100260.13
2022-10-05T15:29:42.586Z,100260.78
2022-10-05T15:32:25.409Z,100260.66
2022-10-05T15:35:27.300Z,100261.38
2022-10-05T15:38:00.619Z,100249.97
2022-10-05T15:40:35.080Z,100242.97
2022-10-05T15:43:11.033Z,100240.16
2022-10-05T15:45:54.037Z,100247.34
2022-10-05T15:48:29.521Z,100226.72
2022-10-05T15:51:07.274Z,100235.75
2022-10-05T15:53:45.170Z,100233.53
2022-10-05T15:56:21.567Z,100227.97
2022-10-05T15:58:56.913Z,100235.41
2022-10-05T16:01:49.866Z,100226.53
2022-10-05T16:04:24.426Z,100215.06
2022-10-05T16:07:18.341Z,100234.00
2022-10-05T16:09:56.222Z,100223.59
2022-10-05T16:12:36.707Z,100234.16
2022-10-05T16:15:20.320Z,100234.66
2022-10-05T16:18:14.675Z,100237.19
2022-10-05T16:20:50.101Z,100233.28
2022-10-05T16:23:39.044Z,100230.00
2022-10-05T16:26:20.798Z,100241.34
2022-10-05T16:28:59.317Z,100229.22
2022-10-05T16:31:34.752Z,100232.75
2022-10-05T16:34:17.549Z,100227.69
2022-10-05T16:36:58.816Z,100248.47
2022-10-05T16:39:45.832Z,100248.16
2022-10-05T16:42:24.996Z,100252.56
2022-10-05T16:45:01.155Z,100255.25
2022-10-05T16:47:38.628Z,100254.06
2022-10-05T16:50:20.303Z,100245.25
2022-10-05T16:52:57.281Z,100254.53
2022-10-05T16:55:35.880Z,100253.25
2022-10-05T16:58:12.336Z,100254.22
2022-10-05T17:00:58.395Z,100254.47
2022-10-05T17:03:40.330Z,100257.78
2022-10-05T17:06:28.050Z,100264.69
2022-10-05T17:09:19.337Z,100266.38
2022-10-05T17:12:04.310Z,100268.31
2022-10-05T17:14:41.715Z,100272.63
2022-10-05T17:17:34.602Z,100272.53
2022-10-05T17:20:21.509Z,100280.16
2022-10-05T17:22:55.168Z,100289.56
2022-10-05T17:25:36.388Z,100284.69
2022-10-05T17:28:24.531Z,100295.03
2022-10-05T17:31:10.389Z,100310.19
2022-10-05T17:34:26.710Z,100307.91
2022-10-05T17:37:00.038Z,100316.88
2022-10-05T17:39:50.804Z,100323.44
2022-10-05T17:42:46.403Z,100327.28
2022-10-05T17:46:00.715Z,100335.47
2022-10-05T17:49:07.942Z,100345.56
2022-10-05T17:52:13.127Z,100338.84
2022-10-05T17:55:36.068Z,100346.28
2022-10-05T17:58:39.918Z,100351.81
2022-10-05T18:01:30.493Z,100350.97
2022-10-05T18:04:26.364Z,100356.16
2022-10-05T18:07:04.675Z,100361.84
2022-10-05T18:09:52.528Z,100354.47
2022-10-05T18:12:48.947Z,100369.06
2022-10-05T18:15:48.901Z,100373.25
2022-10-05T18:18:59.352Z,100384.34
2022-10-05T18:21:38.263Z,100390.25
2022-10-05T18:24:46.734Z,100379.19
2022-10-05T18:27:51.368Z,100391.94
2022-10-05T18:30:25.512Z,100388.13
2022-10-05T18:33:32.211Z,100395.28
2022-10-05T18:36:12.285Z,100391.03
2022-10-05T18:38:53.818Z,100387.94
2022-10-05T18:41:34.937Z,100390.06
2022-10-05T18:44:27.322Z,100393.22
2022-10-05T18:47:03.183Z,100401.09
2022-10-05T18:49:47.711Z,100406.34
2022-10-05T18:52:25.551Z,100406.06
2022-10-05T18:55:06.892Z,100409.69
2022-10-05T18:57:51.702Z,100410.66
2022-10-05T19:00:21.895Z,100411.63
2022-10-05T19:02:54.818Z,100414.13
2022-10-05T19:05:47.570Z,100416.09
2022-10-05T19:08:27.653Z,100426.69
2022-10-05T19:11:05.924Z,100428.13
2022-10-05T19:13:43.371Z,100432.38
2022-10-05T19:16:47.660Z,100444.00
2022-10-05T19:19:33.743Z,100452.59
2022-10-05T19:22:08.908Z,100440.69
2022-10-05T19:24:53.563Z,100439.03
2022-10-05T19:27:35.314Z,100450.66
2022-10-05T19:30:20.739Z,100445.13
2022-10-05T19:33:15.211Z,100451.22
2022-10-05T19:35:58.604Z,100455.75
2022-10-05T19:38:33.893Z,100461.56
2022-10-05T19:41:13.964Z,100471.81
2022-10-05T19:44:07.214Z,100474.59
2022-10-05T19:46:51.880Z,100474.88
2022-10-05T19:49:42.404Z,100479.69
2022-10-05T19:52:14.785Z,100484.84
2022-10-05T19:54:43.594Z,100487.34
2022-10-05T19:57:18.276Z,100479.03
2022-10-05T19:59:58.673Z,100487.97
2022-10-05T20:02:27.451Z,100497.94
2022-10-05T20:05:08.536Z,100501.53
2022-10-05T20:07:37.019Z,100502.34
2022-10-05T20:10:29.353Z,100496.97
2022-10-05T20:13:03.102Z,100506.91
2022-10-05T20:15:55.325Z,100497.63
2022-10-05T20:19:05.561Z,100505.38
2022-10-05T20:21:47.932Z,100497.06
2022-10-05T20:24:22.461Z,100513.53
2022-10-05T20:27:16.133Z,100521.41
2022-10-05T20:29:46.915Z,100536.63
2022-10-05T20:32:19.198Z,100524.72
2022-10-05T20:34:50.717Z,100543.53
2022-10-05T20:37:20.689Z,100538.25
2022-10-05T20:39:51.355Z,100549.75
2022-10-05T20:42:21.250Z,100546.81
2022-10-05T20:44:56.706Z,100550.00
2022-10-05T20:47:27.884Z,100564.34
2022-10-05T20:49:56.827Z,100561.88
2022-10-05T20:52:25.123Z,100568.78
2022-10-05T20:54:58.410Z,100574.72
2022-10-05T20:57:26.939Z,100583.91
2022-10-05T20:59:58.399Z,100587.88
2022-10-05T21:02:29.542Z,100583.72
2022-10-05T21:04:58.267Z,100591.03
2022-10-05T21:07:26.721Z,100599.81
2022-10-05T21:09:55.819Z,100599.97
2022-10-05T21:12:23.983Z,100606.41
2022-10-05T21:14:53.320Z,100614.19
2022-10-05T21:17:22.580Z,100605.22
2022-10-05T21:19:52.763Z,100608.25
2022-10-05T21:22:20.984Z,100601.09
2022-10-05T21:24:49.786Z,100607.56
2022-10-05T21:27:18.029Z,100608.25
2022-10-05T21:29:49.816Z,100609.09
2022-10-05T21:32:18.001Z,100607.06
2022-10-05T21:34:46.200Z,100603.84
2022-10-05T21:37:15.649Z,100609.22
2022-10-05T21:39:43.700Z,100601.16
2022-10-05T21:42:11.659Z,100612.25
2022-10-05T21:44:39.551Z,100617.34
2022-10-05T21:47:08.203Z,100624.06
2022-10-05T21:49:37.093Z,100625.63
2022-10-05T21:52:06.003Z,100636.69
2022-10-05T21:54:36.069Z,100626.53
2022-10-05T21:57:04.672Z,100627.63
2022-10-05T21:59:35.320Z,100635.03
2022-10-05T22:02:03.574Z,100635.28
2022-10-05T22:04:31.548Z,100639.09
2022-10-05T22:06:59.778Z,100644.06
2022-10-05T22:09:27.857Z,100648.19
2022-10-05T22:11:57.461Z,100640.44
2022-10-05T22:14:25.357Z,100639.59
2022-10-05T22:16:54.294Z,100644.25
2022-10-05T22:19:22.279Z,100649.50
2022-10-05T22:21:50.356Z,100648.19
2022-10-05T22:24:18.312Z,100648.44
2022-10-05T22:26:49.074Z,100652.28
2022-10-05T22:29:21.571Z,100653.38
2022-10-05T22:31:50.230Z,100662.56
2022-10-05T22:34:19.023Z,100662.69
2022-10-05T22:36:47.586Z,100666.41
2022-10-05T22:39:15.693Z,100672.69
2022-10-05T22:41:43.643Z,100677.25
2022-10-05T22:44:11.473Z,100663.13
2022-10-05T22:46:41.148Z,100670.50
2022-10-05T22:49:09.151Z,100666.09
2022-10-05T22:51:37.204Z,100671.00
2022-10-05T22:54:05.355Z,100679.28
2022-10-05T22:56:33.340Z,100676.91
2022-10-05T22:59:01.135Z,100673.44
2022-10-05T23:01:29.209Z,100672.78
2022-10-05T23:03:58.492Z,100685.47
2022-10-05T23:06:27.579Z,100681.91
2022-10-05T23:08:56.203Z,100683.47
2022-10-05T23:11:26.802Z,100689.19
2022-10-05T23:13:56.802Z,100686.81
2022-10-05T23:16:26.768Z,100689.78
2022-10-05T23:18:59.142Z,100686.34
2022-10-05T23:21:30.490Z,100696.25
2022-10-05T23:23:58.827Z,100702.97
2022-10-05T23:26:26.951Z,100708.34
2022-10-05T23:28:54.956Z,100707.28
2022-10-05T23:31:25.508Z,100707.28
2022-10-05T23:33:54.187Z,100702.28
2022-10-05T23:36:25.930Z,100707.03
2022-10-05T23:38:54.496Z,100715.38
2022-10-05T23:41:22.447Z,100719.34
2022-10-05T23:43:50.568Z,100727.09
2022-10-05T23:46:18.790Z,100733.38
2022-10-05T23:48:46.744Z,100742.47
2022-10-05T23:51:15.586Z,100746.63
2022-10-05T23:53:45.004Z,100743.53
2022-10-05T23:56:13.324Z,100740.19
2022-10-05T23:58:41.823Z,100742.13
